createdAt,value
2017-10-17T00:01:07.900Z,52.53
2017-10-17T00:03:35.333Z,43.43
2017-10-17T00:06:02.752Z,62.47
2017-10-17T00:08:30.188Z,68.33
2017-10-17T00:10:57.607Z,51.57
2017-10-17T00:13:25.065Z,63.53
2017-10-17T00:15:52.511Z,50.67
2017-10-17T00:18:19.937Z,41.47
2017-10-17T00:20:47.351Z,46.57
2017-10-17T00:23:14.792Z,53.70
2017-10-17T00:25:42.212Z,56.03
2017-10-17T00:28:09.660Z,42.93
2017-10-17T00:30:39.911Z,63.30
2017-10-17T00:33:17.846Z,44.57
2017-10-17T00:35:47.982Z,54.93
2017-10-17T00:38:17.191Z,54.90
2017-10-17T00:40:44.617Z,56.67
2017-10-17T00:43:16.562Z,59.70
2017-10-17T00:45:43.984Z,50.47
2017-10-17T00:48:14.820Z,55.93
2017-10-17T00:50:42.262Z,57.83
2017-10-17T00:53:09.684Z,53.73
2017-10-17T00:55:37.106Z,52.10
2017-10-17T00:58:04.549Z,51.90
2017-10-17T01:00:31.973Z,54.07
2017-10-17T01:02:59.400Z,57.43
2017-10-17T01:05:26.837Z,58.33
2017-10-17T01:07:54.252Z,56.03
2017-10-17T01:10:21.677Z,69.63
2017-10-17T01:12:49.124Z,49.00
2017-10-17T01:15:16.548Z,49.97
2017-10-17T01:17:43.965Z,53.70
2017-10-17T01:20:12.897Z,51.83
2017-10-17T01:22:40.312Z,67.77
2017-10-17T01:25:07.736Z,58.70
2017-10-17T01:27:35.182Z,51.70
2017-10-17T01:30:02.621Z,58.50
2017-10-17T01:32:30.036Z,64.50
2017-10-17T01:34:57.456Z,60.17
2017-10-17T01:37:24.892Z,66.33
2017-10-17T01:39:53.938Z,51.97
2017-10-17T01:42:21.351Z,66.10
2017-10-17T01:44:49.738Z,51.67
2017-10-17T01:47:19.071Z,54.60
2017-10-17T01:49:48.956Z,43.13
2017-10-17T01:52:16.397Z,56.20
2017-10-17T01:55:00.625Z,54.57
2017-10-17T01:57:28.060Z,62.00
2017-10-17T02:00:01.448Z,51.23
2017-10-17T02:02:28.893Z,81.20
2017-10-17T02:04:56.313Z,51.87
2017-10-17T02:07:23.736Z,48.63
2017-10-17T02:09:55.599Z,52.63
2017-10-17T02:12:23.018Z,62.80
2017-10-17T02:14:50.439Z,47.97
2017-10-17T02:17:33.526Z,52.90
2017-10-17T02:20:00.944Z,59.17
2017-10-17T02:22:29.076Z,69.23
2017-10-17T02:25:00.017Z,51.70
2017-10-17T02:27:27.432Z,62.20
2017-10-17T02:30:06.705Z,55.47
2017-10-17T02:32:34.188Z,51.43
2017-10-17T02:35:04.013Z,56.93
2017-10-17T02:37:31.457Z,59.90
2017-10-17T02:39:58.876Z,51.47
2017-10-17T02:42:26.306Z,48.33
2017-10-17T02:44:53.733Z,43.80
2017-10-17T02:47:21.173Z,60.47
2017-10-17T02:49:50.200Z,56.00
2017-10-17T02:52:18.238Z,52.93
2017-10-17T02:54:45.681Z,58.73
2017-10-17T02:57:13.114Z,44.93
2017-10-17T02:59:40.529Z,51.00
2017-10-17T03:02:08.721Z,59.20
2017-10-17T03:04:39.005Z,58.27
2017-10-17T03:09:39.184Z,61.83
2017-10-17T03:12:06.612Z,61.13
2017-10-17T03:28:01.901Z,47.73
2017-10-17T03:30:42.026Z,58.23
2017-10-17T03:33:12.153Z,58.10
2017-10-17T03:35:39.591Z,63.67
2017-10-17T03:38:11.749Z,50.73
2017-10-17T03:40:43.724Z,54.17
2017-10-17T03:43:24.842Z,71.53
2017-10-17T03:45:52.261Z,56.87
2017-10-17T03:48:19.681Z,50.50
2017-10-17T03:50:48.033Z,65.67
2017-10-17T03:53:27.307Z,58.53
2017-10-17T03:55:54.769Z,53.43
2017-10-17T03:58:32.804Z,50.70
2017-10-17T04:01:00.241Z,55.13
2017-10-17T04:03:33.669Z,51.67
2017-10-17T04:06:14.913Z,63.63
2017-10-17T04:08:43.293Z,54.80
2017-10-17T04:11:17.393Z,51.53
2017-10-17T04:27:24.357Z,52.00
2017-10-17T04:29:58.445Z,59.97
2017-10-17T04:32:25.886Z,59.93
2017-10-17T04:34:53.297Z,56.63
2017-10-17T04:37:34.405Z,66.73
2017-10-17T04:40:01.832Z,63.70
2017-10-17T04:42:49.880Z,53.30
2017-10-17T04:45:36.700Z,62.57
2017-10-17T05:01:30.310Z,64.40
2017-10-17T05:04:10.473Z,75.07
2017-10-17T05:06:37.938Z,79.97
2017-10-17T05:09:12.953Z,62.33
2017-10-17T05:11:40.385Z,63.27
2017-10-17T05:14:22.285Z,63.83
2017-10-17T05:16:50.460Z,66.03
2017-10-17T05:19:24.707Z,76.37
2017-10-17T05:35:25.085Z,73.03
2017-10-17T05:37:52.508Z,68.43
2017-10-17T05:40:19.928Z,57.73
2017-10-17T05:42:47.360Z,52.30
2017-10-17T05:45:16.323Z,55.80
2017-10-17T05:48:02.514Z,55.67
2017-10-17T05:50:43.602Z,61.20
2017-10-17T05:53:11.036Z,68.57
2017-10-17T05:55:38.466Z,49.63
2017-10-17T05:58:05.889Z,65.40
2017-10-17T06:00:33.328Z,58.40
2017-10-17T06:03:00.740Z,57.13
2017-10-17T06:05:28.163Z,57.93
2017-10-17T06:07:55.606Z,53.83
2017-10-17T06:10:23.045Z,66.57
2017-10-17T06:12:50.460Z,60.53
2017-10-17T06:15:17.888Z,50.60
2017-10-17T06:17:45.316Z,71.87
2017-10-17T06:20:12.769Z,61.53
2017-10-17T06:22:40.184Z,51.27
2017-10-17T06:25:07.612Z,66.17
2017-10-17T06:27:35.053Z,42.60
2017-10-17T06:30:02.470Z,65.03
2017-10-17T06:32:29.911Z,55.73
2017-10-17T06:34:57.334Z,58.40
2017-10-17T06:37:24.757Z,65.93
2017-10-17T06:39:52.201Z,48.83
2017-10-17T06:42:19.621Z,64.07
2017-10-17T06:44:47.053Z,55.60
2017-10-17T06:47:14.489Z,52.87
2017-10-17T06:49:41.915Z,47.53
2017-10-17T06:52:09.337Z,55.67
2017-10-17T06:54:36.768Z,41.27
2017-10-17T06:57:04.188Z,50.17
2017-10-17T06:59:31.618Z,51.13
2017-10-17T07:01:59.054Z,43.90
2017-10-17T07:04:26.482Z,50.57
2017-10-17T07:06:53.925Z,58.13
2017-10-17T07:09:21.341Z,44.07
2017-10-17T07:11:48.752Z,50.70
2017-10-17T07:14:16.198Z,49.57
2017-10-17T07:16:43.623Z,51.33
2017-10-17T07:19:11.042Z,44.90
2017-10-17T07:21:38.472Z,42.50
2017-10-17T07:24:05.905Z,41.03
2017-10-17T07:26:33.337Z,43.50
2017-10-17T07:29:00.782Z,45.57
2017-10-17T07:31:28.208Z,41.27
2017-10-17T07:33:55.636Z,39.83
2017-10-17T07:36:23.073Z,51.13
2017-10-17T07:38:50.512Z,42.20
2017-10-17T07:41:17.931Z,42.87
2017-10-17T07:43:45.373Z,41.40
2017-10-17T07:46:12.812Z,40.77
2017-10-17T07:48:40.244Z,38.93
2017-10-17T07:51:07.680Z,36.80
2017-10-17T07:53:35.123Z,41.87
2017-10-17T07:56:02.540Z,44.77
2017-10-17T07:58:29.960Z,36.50
2017-10-17T08:00:57.409Z,49.03
2017-10-17T08:03:24.852Z,48.90
2017-10-17T08:05:52.344Z,45.40
2017-10-17T08:08:19.801Z,61.67
2017-10-17T08:10:47.226Z,44.90
2017-10-17T08:13:14.641Z,50.67
2017-10-17T08:15:42.080Z,48.03
2017-10-17T08:18:09.501Z,44.70
2017-10-17T08:20:36.924Z,69.67
2017-10-17T08:23:04.366Z,54.20
2017-10-17T08:25:31.796Z,61.20
2017-10-17T08:27:59.221Z,51.93
2017-10-17T08:30:26.656Z,53.83
2017-10-17T08:32:54.091Z,49.43
2017-10-17T08:35:21.526Z,47.20
2017-10-17T08:37:48.957Z,45.43
2017-10-17T08:40:16.368Z,47.57
2017-10-17T08:42:43.804Z,53.83
2017-10-17T08:45:11.228Z,49.23
2017-10-17T08:47:38.648Z,38.93
2017-10-17T08:50:06.108Z,60.80
2017-10-17T08:52:33.516Z,42.63
2017-10-17T08:55:00.940Z,37.23
2017-10-17T08:57:28.388Z,45.27
2017-10-17T08:59:55.808Z,45.03
2017-10-17T09:02:23.232Z,46.73
2017-10-17T09:04:50.668Z,49.40
2017-10-17T09:07:18.088Z,60.57
2017-10-17T09:09:45.520Z,48.43
2017-10-17T09:12:12.948Z,44.50
2017-10-17T09:14:40.369Z,48.00
2017-10-17T09:17:07.804Z,52.20
2017-10-17T09:19:35.230Z,56.53
2017-10-17T09:22:02.656Z,52.13
2017-10-17T09:24:30.097Z,46.33
2017-10-17T09:26:57.540Z,54.57
2017-10-17T09:29:24.965Z,51.23
2017-10-17T09:31:52.404Z,55.90
2017-10-17T09:34:19.837Z,48.13
2017-10-17T09:36:47.257Z,53.97
2017-10-17T09:39:14.692Z,52.77
2017-10-17T09:41:42.112Z,57.70
2017-10-17T09:44:09.553Z,53.00
2017-10-17T09:46:36.976Z,53.83
2017-10-17T09:49:04.396Z,63.43
2017-10-17T09:51:31.833Z,41.57
2017-10-17T09:53:59.261Z,46.37
2017-10-17T09:56:26.725Z,50.13
2017-10-17T09:58:54.140Z,48.97
2017-10-17T10:01:21.556Z,48.87
2017-10-17T10:03:48.998Z,45.83
2017-10-17T10:06:16.418Z,50.57
2017-10-17T10:08:43.884Z,48.80
2017-10-17T10:11:11.305Z,52.77
2017-10-17T10:13:38.723Z,42.00
2017-10-17T10:16:06.166Z,50.70
2017-10-17T10:18:33.589Z,34.87
2017-10-17T10:21:01.019Z,42.97
2017-10-17T10:23:28.468Z,42.50
2017-10-17T10:25:55.893Z,40.57
2017-10-17T10:28:23.322Z,37.13
2017-10-17T10:30:50.757Z,49.03
2017-10-17T10:33:18.176Z,61.83
2017-10-17T10:35:45.607Z,51.10
2017-10-17T10:38:13.033Z,44.30
2017-10-17T10:40:40.461Z,52.03
2017-10-17T10:43:07.901Z,51.00
2017-10-17T10:45:35.324Z,39.00
2017-10-17T10:48:02.744Z,44.23
2017-10-17T10:50:30.180Z,44.03
2017-10-17T10:52:57.603Z,43.73
2017-10-17T10:55:25.029Z,39.47
2017-10-17T10:57:52.468Z,39.23
2017-10-17T11:00:19.897Z,51.47
2017-10-17T11:02:47.317Z,41.23
2017-10-17T11:05:14.759Z,38.17
2017-10-17T11:07:42.197Z,30.37
2017-10-17T11:10:09.622Z,42.00
2017-10-17T11:12:37.065Z,40.23
2017-10-17T11:15:04.493Z,43.33
2017-10-17T11:17:31.912Z,29.60
2017-10-17T11:19:59.360Z,38.77
2017-10-17T11:22:26.784Z,30.23
2017-10-17T11:24:54.222Z,33.30
2017-10-17T11:27:21.651Z,36.93
2017-10-17T11:29:49.077Z,41.57
2017-10-17T11:32:16.517Z,33.50
2017-10-17T11:34:43.937Z,49.13
2017-10-17T11:37:11.356Z,28.47
2017-10-17T11:39:38.784Z,30.70
2017-10-17T11:42:18.005Z,30.77
2017-10-17T11:44:45.436Z,43.73
2017-10-17T11:47:12.857Z,35.43
2017-10-17T11:49:40.359Z,28.47
2017-10-17T11:52:07.800Z,37.57
2017-10-17T11:54:35.225Z,31.47
2017-10-17T11:57:02.673Z,29.37
2017-10-17T11:59:30.116Z,36.93
2017-10-17T12:01:57.557Z,31.03
2017-10-17T12:04:24.977Z,18.73
2017-10-17T12:06:52.392Z,23.87
2017-10-17T12:09:19.833Z,31.43
2017-10-17T12:11:47.261Z,47.07
2017-10-17T12:14:14.692Z,28.43
2017-10-17T12:16:42.133Z,29.63
2017-10-17T12:19:09.682Z,32.40
2017-10-17T12:21:37.125Z,33.03
2017-10-17T12:24:04.552Z,34.23
2017-10-17T12:26:31.972Z,24.77
2017-10-17T12:28:59.415Z,33.30
2017-10-17T12:31:26.840Z,23.20
2017-10-17T12:33:54.279Z,29.07
2017-10-17T12:36:21.700Z,30.90
2017-10-17T12:38:49.123Z,25.20
2017-10-17T12:41:16.556Z,26.47
2017-10-17T12:43:43.980Z,38.83
2017-10-17T12:46:11.420Z,34.33
2017-10-17T12:48:38.841Z,37.33
2017-10-17T12:51:06.273Z,23.90
2017-10-17T12:53:33.713Z,32.03
2017-10-17T12:56:01.137Z,40.80
2017-10-17T12:58:28.561Z,24.13
2017-10-17T13:00:56.000Z,29.63
2017-10-17T13:03:23.425Z,29.40
2017-10-17T13:05:50.844Z,27.80
2017-10-17T13:08:18.289Z,24.67
2017-10-17T13:10:45.711Z,24.13
2017-10-17T13:13:13.133Z,38.03
2017-10-17T13:15:40.567Z,42.23
2017-10-17T13:18:07.988Z,33.23
2017-10-17T13:20:35.425Z,28.10
2017-10-17T13:23:02.848Z,40.33
2017-10-17T13:25:30.288Z,24.23
2017-10-17T13:27:57.704Z,25.43
2017-10-17T13:30:25.124Z,27.87
2017-10-17T13:32:52.594Z,24.70
2017-10-17T13:35:20.014Z,25.63
2017-10-17T13:37:47.433Z,26.07
2017-10-17T13:40:14.872Z,31.50
2017-10-17T13:42:42.289Z,25.87
2017-10-17T13:45:09.729Z,27.50
2017-10-17T13:47:37.148Z,34.50
2017-10-17T13:50:04.572Z,24.07
2017-10-17T13:52:32.013Z,20.73
2017-10-17T13:54:59.436Z,24.47
2017-10-17T13:57:26.874Z,38.00
2017-10-17T13:59:54.293Z,34.13
2017-10-17T14:02:21.707Z,24.30
2017-10-17T14:04:49.149Z,27.87
2017-10-17T14:07:16.609Z,23.77
2017-10-17T14:09:44.025Z,26.70
2017-10-17T14:12:11.453Z,26.97
2017-10-17T14:14:38.897Z,30.97
2017-10-17T14:17:06.341Z,23.67
2017-10-17T14:19:33.753Z,23.10
2017-10-17T14:22:01.179Z,25.43
2017-10-17T14:24:28.621Z,43.50
2017-10-17T14:26:56.044Z,28.97
2017-10-17T14:29:23.476Z,30.77
2017-10-17T14:31:50.905Z,29.80
2017-10-17T14:34:18.324Z,35.87
2017-10-17T14:36:45.764Z,20.40
2017-10-17T14:39:13.184Z,26.13
2017-10-17T14:41:40.609Z,26.23
2017-10-17T14:44:08.052Z,29.47
2017-10-17T14:46:35.473Z,28.03
2017-10-17T14:49:02.900Z,23.00
2017-10-17T14:51:30.335Z,21.90
2017-10-17T14:53:57.764Z,27.43
2017-10-17T14:56:25.193Z,22.67
2017-10-17T14:58:52.633Z,20.10
2017-10-17T15:01:20.082Z,20.40
2017-10-17T15:03:47.514Z,24.20
2017-10-17T15:06:14.941Z,23.27
2017-10-17T15:08:42.377Z,20.97
2017-10-17T15:11:09.859Z,27.53
2017-10-17T15:13:37.251Z,33.07
2017-10-17T15:16:04.684Z,24.60
2017-10-17T15:18:32.120Z,27.27
2017-10-17T15:20:59.541Z,28.77
2017-10-17T15:23:26.959Z,33.03
2017-10-17T15:25:54.417Z,28.37
2017-10-17T15:28:22.148Z,21.80
2017-10-17T15:30:49.564Z,29.27
2017-10-17T15:33:17.150Z,35.30
2017-10-17T15:35:44.567Z,25.60
2017-10-17T15:38:11.999Z,27.63
2017-10-17T15:40:39.436Z,38.37
2017-10-17T15:43:06.856Z,29.23
2017-10-17T15:45:34.296Z,30.57
2017-10-17T15:48:01.721Z,23.70
2017-10-17T15:50:29.145Z,27.93
2017-10-17T15:52:56.584Z,33.83
2017-10-17T15:55:24.005Z,28.03
2017-10-17T15:57:51.425Z,30.43
2017-10-17T16:00:18.879Z,30.53
2017-10-17T16:02:46.308Z,30.73
2017-10-17T16:05:13.733Z,29.83
2017-10-17T16:07:41.181Z,40.67
2017-10-17T16:10:08.621Z,24.37
2017-10-17T16:12:36.048Z,56.43
2017-10-17T16:15:03.538Z,26.90
2017-10-17T16:17:30.991Z,35.33
2017-10-17T16:19:58.443Z,29.93
2017-10-17T16:22:25.893Z,40.53
2017-10-17T16:24:53.329Z,34.33
2017-10-17T16:27:20.749Z,43.93
2017-10-17T16:29:48.188Z,29.63
2017-10-17T16:32:15.613Z,37.27
2017-10-17T16:34:43.041Z,47.50
2017-10-17T16:37:10.484Z,37.43
2017-10-17T16:39:37.908Z,38.40
2017-10-17T16:42:05.324Z,46.20
2017-10-17T16:44:32.764Z,47.07
2017-10-17T16:47:00.186Z,30.83
2017-10-17T16:49:27.609Z,31.70
2017-10-17T16:51:55.053Z,42.13
2017-10-17T16:54:22.485Z,38.03
2017-10-17T16:56:49.909Z,38.67
2017-10-17T16:59:17.364Z,34.30
2017-10-17T17:01:44.784Z,38.73
2017-10-17T17:04:12.216Z,45.03
2017-10-17T17:06:39.658Z,50.20
2017-10-17T17:09:07.076Z,45.47
2017-10-17T17:11:34.505Z,43.60
2017-10-17T17:14:01.945Z,38.80
2017-10-17T17:16:29.373Z,41.67
2017-10-17T17:18:56.812Z,55.13
2017-10-17T17:21:24.244Z,41.10
2017-10-17T17:23:51.665Z,52.73
2017-10-17T17:26:19.093Z,60.60
2017-10-17T17:28:46.528Z,36.77
2017-10-17T17:31:13.952Z,50.43
2017-10-17T17:33:41.376Z,40.47
2017-10-17T17:36:08.849Z,39.00
2017-10-17T17:38:36.268Z,38.90
2017-10-17T17:41:03.701Z,41.07
2017-10-17T17:43:31.226Z,45.07
2017-10-17T17:45:58.661Z,46.47
2017-10-17T17:48:26.141Z,39.67
2017-10-17T17:50:53.586Z,49.67
2017-10-17T17:53:21.008Z,54.43
2017-10-17T17:55:48.427Z,48.43
2017-10-17T17:58:15.873Z,45.13
2017-10-17T18:00:43.288Z,40.30
2017-10-17T18:03:10.713Z,56.77
2017-10-17T18:05:38.189Z,43.73
2017-10-17T18:08:05.614Z,49.77
2017-10-17T18:10:33.061Z,48.80
2017-10-17T18:13:00.484Z,40.20
2017-10-17T18:15:27.895Z,41.23
2017-10-17T18:17:55.337Z,34.03
2017-10-17T18:20:22.795Z,49.03
2017-10-17T18:22:50.226Z,38.57
2017-10-17T18:25:17.668Z,43.40
2017-10-17T18:27:45.093Z,31.93
2017-10-17T18:30:12.509Z,50.73
2017-10-17T18:32:40.424Z,38.93
2017-10-17T18:35:07.961Z,40.63
2017-10-17T18:37:35.638Z,35.57
2017-10-17T18:40:03.065Z,50.70
2017-10-17T18:42:30.505Z,37.53
2017-10-17T18:44:57.949Z,39.40
2017-10-17T18:47:25.373Z,35.63
2017-10-17T18:49:52.818Z,41.30
2017-10-17T18:52:20.266Z,53.63
2017-10-17T18:54:47.716Z,32.13
2017-10-17T18:57:15.161Z,39.93
2017-10-17T18:59:42.585Z,40.80
2017-10-17T19:02:10.104Z,38.57
2017-10-17T19:04:39.155Z,40.53
2017-10-17T19:07:06.791Z,39.60
2017-10-17T19:09:34.253Z,38.60
2017-10-17T19:12:02.185Z,42.17
2017-10-17T19:14:29.970Z,42.80
2017-10-17T19:16:57.653Z,40.00
2017-10-17T19:19:25.321Z,37.30
2017-10-17T19:21:52.987Z,35.13
2017-10-17T19:24:21.504Z,39.97
2017-10-17T19:26:49.069Z,36.60
2017-10-17T19:29:16.658Z,56.27
2017-10-17T19:31:44.162Z,48.20
2017-10-17T19:34:11.686Z,45.43
2017-10-17T19:36:42.413Z,40.67
2017-10-17T19:39:10.685Z,49.83
2017-10-17T19:41:38.898Z,44.63
2017-10-17T19:44:06.520Z,44.03
2017-10-17T19:46:34.283Z,43.40
2017-10-17T19:49:01.865Z,42.60
2017-10-17T19:51:29.580Z,49.60
2017-10-17T19:53:59.008Z,41.10
2017-10-17T19:56:28.035Z,40.40
2017-10-17T19:58:55.698Z,46.70
2017-10-17T20:01:23.158Z,47.50
2017-10-17T20:03:50.597Z,41.60
2017-10-17T20:06:18.055Z,39.57
2017-10-17T20:08:45.502Z,44.73
2017-10-17T20:11:12.965Z,45.17
2017-10-17T20:13:40.401Z,44.07
2017-10-17T20:16:07.843Z,52.10
2017-10-17T20:18:35.289Z,50.30
2017-10-17T20:21:02.716Z,48.03
2017-10-17T20:23:30.149Z,54.90
2017-10-17T20:25:57.593Z,53.17
2017-10-17T20:28:25.025Z,53.30
2017-10-17T20:30:52.454Z,58.10
2017-10-17T20:33:19.903Z,63.70
2017-10-17T20:35:47.329Z,56.40
2017-10-17T20:38:14.753Z,56.83
2017-10-17T20:40:42.188Z,62.67
2017-10-17T20:43:09.639Z,51.57
2017-10-17T20:45:37.082Z,56.33
2017-10-17T20:48:04.505Z,59.50
2017-10-17T20:50:31.936Z,52.10
2017-10-17T20:52:59.372Z,57.57
2017-10-17T20:55:26.825Z,62.83
2017-10-17T20:57:54.253Z,52.40
2017-10-17T21:00:21.672Z,48.00
2017-10-17T21:02:49.117Z,57.87
2017-10-17T21:05:16.549Z,61.10
2017-10-17T21:07:43.988Z,55.50
2017-10-17T21:10:11.409Z,50.33
2017-10-17T21:12:38.837Z,53.50
2017-10-17T21:15:06.279Z,64.23
2017-10-17T21:17:33.705Z,51.93
2017-10-17T21:20:01.121Z,54.43
2017-10-17T21:22:28.557Z,52.57
2017-10-17T21:24:56.002Z,48.23
2017-10-17T21:27:23.429Z,48.53
2017-10-17T21:29:50.852Z,48.73
2017-10-17T21:32:18.297Z,64.83
2017-10-17T21:34:45.755Z,62.47
2017-10-17T21:37:13.157Z,58.30
2017-10-17T21:39:40.576Z,69.43
2017-10-17T21:42:13.780Z,50.20
2017-10-17T21:44:41.200Z,50.50
2017-10-17T21:47:08.645Z,64.13
2017-10-17T21:49:36.077Z,88.63
2017-10-17T21:52:03.497Z,65.43
2017-10-17T21:54:30.945Z,71.00
2017-10-17T21:56:58.401Z,83.93
2017-10-17T21:59:25.837Z,71.37
2017-10-17T22:01:53.272Z,77.77
2017-10-17T22:04:20.692Z,56.57
2017-10-17T22:06:48.164Z,56.23
2017-10-17T22:09:15.618Z,53.37
2017-10-17T22:11:43.036Z,62.40
2017-10-17T22:14:10.456Z,60.43
2017-10-17T22:16:37.892Z,63.57
2017-10-17T22:19:05.333Z,65.80
2017-10-17T22:21:32.765Z,63.03
2017-10-17T22:24:00.184Z,56.37
2017-10-17T22:26:27.637Z,53.60
2017-10-17T22:28:55.060Z,62.00
2017-10-17T22:31:22.504Z,66.30
2017-10-17T22:33:49.982Z,56.90
2017-10-17T22:36:17.420Z,52.13
2017-10-17T22:38:44.853Z,75.33
2017-10-17T22:41:12.288Z,52.33
2017-10-17T22:43:39.709Z,59.20
2017-10-17T22:46:07.140Z,63.57
2017-10-17T22:48:34.601Z,64.60
2017-10-17T22:51:02.114Z,54.73
2017-10-17T22:53:29.556Z,63.30
2017-10-17T22:55:56.971Z,67.87
2017-10-17T22:58:24.398Z,55.77
2017-10-17T23:00:51.832Z,55.40
2017-10-17T23:03:19.257Z,58.23
2017-10-17T23:05:46.681Z,54.47
2017-10-17T23:08:14.125Z,63.50
2017-10-17T23:10:41.560Z,63.63
2017-10-17T23:13:09.001Z,53.30
2017-10-17T23:15:36.429Z,62.13
2017-10-17T23:31:37.373Z,58.13
2017-10-17T23:34:04.792Z,71.27
2017-10-17T23:36:32.232Z,54.73
2017-10-17T23:38:59.661Z,64.67
2017-10-17T23:41:27.076Z,60.33
2017-10-17T23:43:54.503Z,47.27
2017-10-17T23:46:21.930Z,65.17
2017-10-17T23:48:49.360Z,54.93
2017-10-17T23:51:16.780Z,56.83
2017-10-17T23:53:44.201Z,55.10
2017-10-17T23:56:11.640Z,55.77
2017-10-17T23:58:39.129Z,56.40
